Terminal Aerodrome Forecast
Issued by NWS Tampa Bay Area, FL

Home | Current Version | Previous Version | Text Only | Print | Product List | Glossary On
Versions: 1 2 3 4 5 6 7 8 9 10 11 12
252
FTUS42 KTBW 240534
TAFSRQ
TAF
KSRQ 240534Z 2406/2506 VRB04KT P6SM SKC
     FM241500 12005KT P6SM FEW040
     FM241800 26006KT P6SM FEW040
     FM242300 32008KT P6SM SCT050
     FM250200 03006KT P6SM FEW050=

USA.gov is the U.S. government's official web portal to all federal, state and local government web resources and services.